Great Bend, North Dakota
Current Conditions -  °F | °C
As of 8:35 PM on Wednesday 22 Oct 2014 (Local Time) from KBWP Reporting Station
Overcast Overcast  
Wind Chill: 54°   Ceiling: 5500
Heat Index: 54°   Visibility: 10mi
Dew Point: 50°   Wind: 6mph
Humidity: 88%   Direction: 250°WSW
Pressure: 29.92"   Gusts: NA
Location:  46.15°N, 96.8°W
Report Text: KBWP 230135Z AUTO 25005KT 10SM SCT046 BKN055 OVC110 12/10 A2992 RMK AO1
Loading
Personal Weather Stations






























Interactive Weather Map
Tropical Storm Tracking
New forecast layout! Learn more

10-Day Weather Forecast

Advertisements
Track Severe Weather on mobile